Get Adobe Flash player

РУС

ENG

 
  Pireps - S7
 

Рейс SBIS7 9355

  • Выполнял: Grigoriy Paliy
  • Аэропорт отправления: Pashkovskiy Krasnodar Intl. (URKK)
  • Аэропорт назначения: Domodedovo Airport (UUDD)
  • Тип ВС: TUPOLEV TU15 (RA-85633)
  • Время полёта: 02.17
  • Дата полёта: 12.02.2017
  • Маршрут: NZ R114 BA G247 MIMRA B145 GITAL A928 FE FE1D AO
  • Статус: Одобрен

Детали полёта
Gross Revenue:
(147 load / $ 700.00 per unit
$ 102,900.00
Fuel Cost:
(9696 fuel used @ 5.1 / unit)
$ 49,449.60


Дополнительная информация о полёте:

Лог

Aircraft Used in flight is Tu154_felis_v1.1 S7 Airlines
14:02 Boarding
14:02 Brakes are On
14:10 Brakes are Released
14:10 Brakes are On
14:12 Brakes are Released
14:13 Engine 2 Started
14:14 Engine 1 Started
14:15 Engine 3 Started
14:17Flaps 2 Selected at 130ft and 1kts
14:17Flaps 4 Selected at 130ft and 1kts
14:24 Navigation Lights ON at 130 AGL
14:24 Beacon Lights ON at 130 AGL
14:24 Beacon Lights OFF at 130 AGL
14:24 Beacon Lights ON at 130 AGL
14:29 You Took off @ 144 Knots and Flaps at Position 4
Departure Weather
URKK 121100Z 06007MPS 9999 BKN021 M02/M08 Q1033 R05C/15//55 NOSIG RMK QFE772rn
14:30Flaps 2 Selected at 2210ft and 178kts
14:30Flaps Retracted at 3410ft and 197kts
14:44 Paused
14:47 Unpaused
14:48 TOC Reached
16:03 Below 10000 feet you are not allowed to go over 250 knots
16:07Flaps 2 Selected at 2230ft and 191kts
16:08Flaps 4 Selected at 2230ft and 167kts
16:08Flaps 6 Selected at 2280ft and 146kts
16:08Flaps 8 Selected at 2260ft and 143kts
16:12 You Landed @ 137 Knots and with -250 Vertical Speed
Arrival Weather
UUDD 121030Z 30004MPS 9000 -SHSN BKN012CB M04/M06 Q1032 R32L/550294 R32R/590293 TEMPO 2000 SHSNrn
16:12Flaps 6 Selected at 600ft and 132kts
16:14Flaps 4 Selected at 600ft and 9kts
16:14Flaps 2 Selected at 600ft and 9kts
16:14Flaps Retracted at 600ft and 9kts
16:19 Beacon Lights OFF at 600 AGL
16:20 Engine 1 Stoped
16:20 Engine 3 Stoped
16:20 Engine 2 Stoped
16:21 Brakes are On
16:21 Beacon Lights ON at 600 AGL
Pirep logged with S7 Tracking 1.0.0.14


!!! Превышение допустимого значения вертикальной скорости при посадке: -5%


Общая оценка полета : 95%




Route Map



 
 
   
 
Новости

26.04.2018 - Полеты в X-PLANE

Наш клиент S7 Pad поддерживает полеты как в MFSX, Prepar3d V4, так и в X-PLANE 10 и 11 версиях!
На нашем сайте в разреде загруки есть плагин XPUIPIC for X-plane.
Приятных Вам полетов и мягких посадок!

   
 
Авторизация






Регистрация

Восстановить пароль?

Мы в соц. сетях

      



   
  TeamSpeak3 ts.va-s7.ru


   
 

   
 



   
 


Яндекс.Метрика

www.va-s7.ru 2011-2017
Все права защищены.



Минуточку внимания!
Мы не имеем отношения к торговым маркам "S7" и "Globus" и их представителям.
Эмблемы на сайте являются собственностью соответствующих компаний.

аэронавигационная метеорологическая и любая другая информация с данного ресурса ни в коем случае не должна использоваться для реальных полетов